x

Long Island - 30 Nm South Of Islip, Ny (44025) Wave Buoy

7:50pm - Thu 28th Jul 2016 All times are EDT. -4 hours from GMT.

  • Sig Wave height 1.3ft
  • Swell Direction
  • Peak Period 6s
  • Average Period 4s
  • Wind
    7mph, 9mph gusts
  • Sea Temp 78°f
  • Air Temp 78°f
  • Sea Pressure 1010.9mb
  • Long Island - 30 Nm South Of Islip, Ny
  • Long Island - 30 Nm South Of Islip, Ny

More Historic Weather Station data

Upgrade to MSW Pro to gain access to the past 30 days of data for over 8000 Wavebouys and Weather Stations around the globe.

Join Pro

Comparision Forecast

View Surf forecast
   
Thu 07/28 7:50pm 1.3ft 6s 4s 7 9 mph 1010.9mb 78f 78f
6:50pm 1.3ft 6s 4s 9 11 mph 1011.5mb 78f 78f
5:50pm 1.3ft 6s 4s 9 11 mph 1011.4mb 78f 78f
4:50pm 1.3ft 8s 5s 9
mph
1010.8mb 78f 77f
3:50pm 1.3ft 6s 5s 9 11 mph 1011.5mb 78f 78f
1:50pm 1.6ft 6s 5s 9 11 mph 1012mb 78f 77f
12:50pm 1.6ft 6s 5s 9
mph
1012.4mb 78f 77f
11:50am 1.6ft 6s 5s 7
mph
1012.9mb 78f 76f
10:50am 1.6ft 6s 5s 9 11 mph 1013.1mb 77f 75f
9:50am 1.3ft 6s 5s 4 7 mph 1012.9mb 77f 75f
8:50am 1.3ft 6s 5s  -  2 mph 1013.2mb 76f 76f
7:50am 1.3ft 6s 5s 2
mph
1013mb 76f 76f
6:50am 1.3ft 6s 5s 4 7 mph 1012.7mb 76f 76f
5:50am 1.3ft 6s 5s 7
mph
1012.5mb 76f 76f
4:50am 1.3ft 6s 5s 4
mph
1012.1mb 76f 76f
3:50am 1.3ft 7s 5s 7 9 mph 1012.2mb 76f 76f
2:50am 1.6ft 6s 5s 7
mph
1012.2mb 76f 76f
1:50am 1.6ft 6s 5s 4 7 mph 1012.5mb 76f 76f
12:50am 2ft 7s 5s 4 7 mph 1012.5mb 76f 76f
Wed 07/27 11:50pm 2ft 6s 5s 4 7 mph 1012.5mb 76f 76f
10:50pm 2ft 6s 5s 7
mph
1012.9mb 77f 77f
9:50pm 2ft 6s 5s 9 11 mph 1012.7mb 77f 77f
8:50pm 2ft 6s 5s 9 11 mph 1012.7mb 77f 77f
7:50pm 1.6ft 6s 5s 9 11 mph 1012.3mb 77f 77f
6:50pm 1.6ft 6s 5s 9 11 mph 1012.1mb 77f 77f
5:50pm 1.6ft 6s 5s 9 11 mph 1012.2mb 77f 77f
4:50pm 1.6ft 6s 5s 9 11 mph 1012.7mb 77f 77f
3:50pm 1.6ft 6s 5s 9
mph
1013mb 78f 77f
2:50pm 1.6ft 6s 5s 7
mph
1013.3mb 79f 76f
1:50pm 1.6ft 6s 5s 2 4 mph 1013.7mb 78f 76f
12:50pm 1.6ft 6s 5s 2 4 mph 1013.9mb 76f 75f
11:50am 2ft 6s 5s 4
mph
1013.9mb 76f 75f
10:50am 2ft 6s 5s 2 4 mph 1013.7mb 75f 74f
9:50am 2ft 6s 5s 4
mph
1013.8mb 74f 74f
8:50am 2.5ft 6s 5s 9
mph
1013.8mb 74f 74f
7:50am 2.5ft 6s 6s 7 9 mph 1013.6mb 75f 75f
6:50am 2.5ft 6s 5s 7
mph
1013.5mb 75f 75f
5:50am 2.5ft 6s 5s 7 9 mph 1013.5mb 75f 76f
4:50am 2.5ft 6s 5s 7
mph
1013.2mb 75f 76f
3:50am 2.5ft 7s 5s 9
mph
1012.7mb 76f 76f
2:50am 3ft 7s 5s 7 9 mph 1012.6mb 76f 77f
1:50am 3ft 6s 5s 4
mph
1012.7mb 76f 77f
12:50am 3.5ft 7s 5s 4 7 mph 1012.5mb 76f 78f
Tue 07/26 11:50pm 3.5ft 7s 5s 7 9 mph 1012.5mb 76f 78f
10:50pm 3.5ft 7s 5s 7
mph
1012.3mb 76f 77f
9:50pm 3.5ft 7s 5s 7 9 mph 1012.2mb 76f 78f
8:50pm 3.5ft 7s 5s 16 18 mph 1011.4mb 76f 78f
7:50pm 3ft 7s 5s 16 18 mph 1010.6mb 76f 78f
6:50pm 3ft 7s 5s 16 18 mph 1010.5mb 76f 78f
5:50pm 2.5ft 6s 5s 13 16 mph 1010.6mb 76f 78f
4:50pm 2.5ft 7s 5s 13
mph
1010.8mb 76f 78f
3:50pm 2.5ft 7s 5s 13 16 mph 1011mb 76f 78f
2:50pm 2.5ft 6s 5s 9 11 mph 1011.4mb 76f 77f
1:50pm 2.5ft 7s 5s 9 11 mph 1011.5mb 75f 77f
12:50pm 2.5ft 6s 5s 9 11 mph 1011.9mb 75f 76f
11:50am 3ft 6s 5s 9 11 mph 1012.4mb 74f 75f
10:50am 3ft 6s 5s 9 11 mph 1012.6mb 74f 75f
9:50am 3.5ft 6s 4s 13 16 mph 1012.3mb 74f 74f
8:50am 3.5ft 6s 4s 16 18 mph 1011.9mb 74f 74f
7:50am 3ft 6s 4s 16 20 mph 1011.9mb 74f 74f
6:50am 3.5ft 6s 4s 18 20 mph 1011.4mb 74f 74f
5:50am 2.5ft 6s 4s 16 20 mph 1010.9mb 73f 75f
4:50am 2.5ft 3s 4s 13 16 mph 1010.6mb 73f 74f
3:50am 2.5ft 4s 4s 16 20 mph 1010.7mb 73f 74f
2:50am 2.5ft 4s 4s 13 18 mph 1010.7mb 73f 74f
1:50am 2.5ft 4s 4s 13 18 mph 1010.2mb 73f 75f
12:50am 2.5ft 4s 4s 11 13 mph 1010.1mb 73f 75f
Mon 07/25 11:50pm 2.5ft 4s 4s 18 20 mph 1010.3mb 73f 74f
10:50pm 2.5ft 5s 4s 20 22 mph 1010.3mb 73f 74f
9:50pm 2ft 5s 4s 20 25 mph 1012mb 74f 74f
8:50pm 2.5ft 4s 4s 11 13 mph 1012.4mb 74f 74f
7:50pm 3.5ft 4s 4s 4 7 mph 1012.2mb 74f 73f
6:50pm 2.5ft 5s 4s 7 11 mph 1010.9mb 75f 77f
5:50pm 2.5ft 5s 4s 9 11 mph 1010.4mb 75f 77f
4:50pm 2.5ft 5s 4s 7
mph
1010.6mb 75f 76f
3:50pm 2.5ft 4s 4s 7 9 mph 1010.8mb 75f 76f
2:50pm 3ft 5s 4s 9 11 mph 1011.8mb 74f 75f
1:50pm 3ft 5s 4s 9 11 mph 1012.4mb 73f 75f
12:50pm 3ft 5s 4s 13 16 mph 1012.9mb 73f 74f
11:50am 3.5ft 5s 4s 13 18 mph 1013.1mb 72f 74f
10:50am 2.5ft 5s 4s 20 25 mph 1012.9mb 72f 74f
9:50am 2.5ft 6s 4s 11 13 mph 1013.6mb 72f 73f
8:50am 2.5ft 5s 4s 20 22 mph 1014.2mb 72f 73f
7:50am 2ft 5s 4s 11 18 mph 1015.1mb 72f 76f
6:50am 2.5ft 6s 4s 13 16 mph 1014.6mb 72f 76f
5:50am 2ft 6s 4s 9
mph
1013.9mb 73f 75f
4:50am 2.5ft 6s 4s 9
mph
1013.9mb 73f 75f
3:50am 2.5ft 6s 4s 9
mph
1014.1mb 73f 75f
2:50am 2.5ft 6s 4s 11
mph
1013.8mb 73f 76f
1:50am 2.5ft 6s 4s 11 13 mph 1014mb 73f 76f